ミッドウェー島 の空港の天気 - METARとTAF

ヘンダーソン基地 ( PMDY / MDY ) - 合衆国領有小離島 ミッドウェー島
飛行場実況気象(Metar)
観測時間05/31 19:56 SST (06/01 06:56 UTC)
風向・風速西南西 3m/s
視程10km以上
天気現象
-
気温25.6℃
湿度90%
気圧1017.7hPa
METARPMDY 010656Z AUTO 24005KT 9SM 26/24 A3006 RMK AO2 RAB03E27 SLP177 P0004 T02560239 $
過去の天気等 Google飛行場航空写真 Wunderground天気予報

過去48時間のMETAR

飛行場予報(TAF)
発表時間: 5/31 18:38 SST (6/01 05:38 UTC)
予報対象時間: 31日19時 SST ~ 1日19時 SST
風向・風速南西 3m/s
視程10km以上
少しの雲 雲底高度 760m
全天の4割程度の雲 雲底高度 1220m
1日7時 SST から
風向・風速不定 2m/s
視程10km以上
天気現象周辺でしゅう雨
全天の4割程度の雲 雲底高度 760m
全天を覆う雲 雲底高度 1220m
1日18時 SST から
風向・風速不定 3m/s
視程10km以上
少しの雲 雲底高度 760m
全天の4割程度の雲 雲底高度 1220m
PMDY 010538Z 0106/0206 22006KT P6SM FEW025 SCT040
FM011800 VRB03KT P6SM VCSH SCT025 OVC040
FM020500 VRB05KT P6SM FEW025 SCT040